createdAt,value
2022-08-05T03:10:36.715Z,20.20
2022-08-05T03:21:59.029Z,20.00
2022-08-05T03:27:59.104Z,20.10
2022-08-05T03:30:35.690Z,20.10
2022-08-05T07:01:14.080Z,22.50
2022-08-05T07:03:51.727Z,22.70
2022-08-05T07:18:38.513Z,23.40
2022-08-05T07:21:15.010Z,23.60
2022-08-05T07:23:53.269Z,23.70
2022-08-05T07:26:24.964Z,23.90
2022-08-05T07:28:52.946Z,23.90
2022-08-05T07:31:20.780Z,23.80
2022-08-05T07:34:08.357Z,23.80
2022-08-05T07:36:35.699Z,23.80
2022-08-05T07:39:07.613Z,23.70
2022-08-05T07:42:08.364Z,23.80
2022-08-05T07:44:39.239Z,24.10
2022-08-05T07:47:08.006Z,24.40
2022-08-05T07:49:43.337Z,24.60
2022-08-05T07:52:21.539Z,24.50
2022-08-05T07:54:51.126Z,24.50
2022-08-05T07:57:50.467Z,24.50
2022-08-05T08:00:10.498Z,24.40
2022-08-05T08:03:13.753Z,24.50
2022-08-05T08:05:29.054Z,24.50
2022-08-05T08:07:59.119Z,24.70
2022-08-05T08:10:28.023Z,25.20
2022-08-05T08:12:55.190Z,25.30
2022-08-05T08:15:37.279Z,25.30
2022-08-05T08:18:14.078Z,25.30
2022-08-05T08:20:43.326Z,25.50
2022-08-05T08:24:01.004Z,25.60
2022-08-05T08:26:15.607Z,26.00
2022-08-05T08:28:58.976Z,25.90
2022-08-05T08:31:27.515Z,25.90
2022-08-05T08:34:00.338Z,26.10
2022-08-05T08:36:29.580Z,26.00
2022-08-05T08:39:04.641Z,25.50
2022-08-05T08:41:51.199Z,25.30
2022-08-05T08:45:18.291Z,25.50
2022-08-05T08:47:22.209Z,25.30
2022-08-05T08:50:23.139Z,25.10
2022-08-05T08:52:53.252Z,25.10
2022-08-05T08:55:32.075Z,25.10
2022-08-05T08:58:09.146Z,25.10
2022-08-05T09:00:36.597Z,25.00
2022-08-05T09:03:08.280Z,25.10
2022-08-05T09:05:38.864Z,25.10
2022-08-05T09:08:27.516Z,25.30
2022-08-05T09:10:58.027Z,26.00
2022-08-05T09:13:25.484Z,25.90
2022-08-05T09:15:59.733Z,25.70
2022-08-05T09:18:27.125Z,25.90
2022-08-05T09:20:54.482Z,26.80
2022-08-05T09:23:23.526Z,26.80
2022-08-05T09:26:06.742Z,27.20
2022-08-05T09:28:36.982Z,27.40
2022-08-05T09:31:23.024Z,27.30
2022-08-05T09:33:56.258Z,27.40
2022-08-05T09:36:27.656Z,27.40
2022-08-05T09:39:18.020Z,27.60
2022-08-05T09:41:59.277Z,27.90
2022-08-05T09:44:42.694Z,28.10
2022-08-05T09:47:12.679Z,28.20
2022-08-05T09:50:01.315Z,28.30
2022-08-05T09:52:31.735Z,28.40
2022-08-05T09:55:58.550Z,28.10
2022-08-05T09:58:00.051Z,27.30
2022-08-05T10:00:27.780Z,26.60
2022-08-05T10:02:58.713Z,26.30
2022-08-05T10:05:32.678Z,26.20
2022-08-05T10:08:36.551Z,26.70
2022-08-05T10:10:54.230Z,26.90
2022-08-05T10:13:31.551Z,26.50
2022-08-05T10:16:32.065Z,26.30
2022-08-05T10:19:00.050Z,26.20
2022-08-05T10:21:35.369Z,26.50
2022-08-05T10:24:10.698Z,26.70
2022-08-05T10:26:39.577Z,26.40
2022-08-05T10:29:23.339Z,26.20
2022-08-05T10:32:54.224Z,26.10
2022-08-05T10:34:40.778Z,26.10
2022-08-05T10:37:08.392Z,26.30
2022-08-05T10:40:03.376Z,26.80
2022-08-05T10:42:33.924Z,26.80
2022-08-05T10:45:01.667Z,26.90
2022-08-05T10:47:33.426Z,26.80
2022-08-05T10:50:33.035Z,26.90
2022-08-05T10:52:58.792Z,26.80
2022-08-05T10:55:26.539Z,26.70
2022-08-05T10:58:08.582Z,26.90
2022-08-05T11:00:36.022Z,26.80
2022-08-05T11:03:23.392Z,27.40
2022-08-05T11:06:08.445Z,28.40
2022-08-05T11:08:37.374Z,28.20
2022-08-05T11:11:25.039Z,29.20
2022-08-05T11:14:11.394Z,29.30
2022-08-05T11:16:56.184Z,29.20
2022-08-05T11:20:10.665Z,29.30
2022-08-05T11:22:33.267Z,29.80
2022-08-05T11:26:04.452Z,29.70
2022-08-05T11:28:09.728Z,29.60
2022-08-05T11:31:01.875Z,30.10
2022-08-05T11:33:46.110Z,30.20
2022-08-05T11:36:34.604Z,30.10
2022-08-05T11:39:09.194Z,30.20
2022-08-05T11:41:57.957Z,30.20
2022-08-05T11:44:53.029Z,30.50
2022-08-05T11:47:22.113Z,30.30
2022-08-05T11:50:08.209Z,30.70
2022-08-05T11:52:35.911Z,30.70
2022-08-05T11:55:07.110Z,30.70
2022-08-05T11:58:08.436Z,30.50
2022-08-05T12:00:30.423Z,30.40
2022-08-05T12:02:57.851Z,30.50
2022-08-05T12:05:32.341Z,30.30
2022-08-05T12:08:09.629Z,30.50
2022-08-05T12:10:45.048Z,30.80
2022-08-05T12:13:17.138Z,30.80
2022-08-05T12:15:50.257Z,31.00
2022-08-05T12:18:32.846Z,30.60
2022-08-05T12:21:12.374Z,30.50
2022-08-05T12:23:43.077Z,30.40
2022-08-05T12:26:10.494Z,30.40
2022-08-05T12:28:38.379Z,30.30
2022-08-05T12:31:05.854Z,30.40
2022-08-05T12:33:36.665Z,30.60
2022-08-05T12:36:08.619Z,30.60
2022-08-05T12:38:41.115Z,30.80
2022-08-05T12:41:13.516Z,30.90
2022-08-05T12:43:57.658Z,31.00
2022-08-05T12:46:31.151Z,31.00
2022-08-05T12:49:13.815Z,31.00
2022-08-05T12:52:13.049Z,31.00
2022-08-05T12:54:36.763Z,30.70
2022-08-05T12:57:09.713Z,30.70
2022-08-05T13:01:56.754Z,30.80
2022-08-05T13:02:40.024Z,30.90
2022-08-05T13:05:08.546Z,30.90
2022-08-05T13:07:59.102Z,30.90
2022-08-05T13:10:28.691Z,30.90
2022-08-05T13:12:58.179Z,31.00
2022-08-05T13:15:41.574Z,30.90
2022-08-05T13:18:20.053Z,30.80
2022-08-05T13:20:49.125Z,30.60
2022-08-05T13:23:22.261Z,30.70
2022-08-05T13:25:58.939Z,30.70
2022-08-05T13:28:27.511Z,30.70
2022-08-05T13:30:54.664Z,30.90
2022-08-05T13:34:25.160Z,31.20
2022-08-05T13:36:09.672Z,31.60
2022-08-05T13:38:41.955Z,31.80
2022-08-05T13:41:10.300Z,31.70
2022-08-05T13:43:44.395Z,31.90
2022-08-05T13:46:44.295Z,32.10
2022-08-05T13:49:10.261Z,31.70
2022-08-05T13:51:40.415Z,31.40
2022-08-05T13:54:12.594Z,31.40
2022-08-05T13:56:45.587Z,31.30
2022-08-05T13:59:30.812Z,31.40
2022-08-05T14:02:00.325Z,31.50
2022-08-05T14:04:49.446Z,31.60
2022-08-05T14:07:56.996Z,31.50
2022-08-05T14:10:13.305Z,31.50
2022-08-05T14:12:42.716Z,31.90
2022-08-05T14:16:07.937Z,32.00
2022-08-05T14:17:59.642Z,32.30
2022-08-05T14:20:30.919Z,32.70
2022-08-05T14:22:58.660Z,33.00
2022-08-05T14:25:28.219Z,32.80
2022-08-05T14:27:58.566Z,32.80
2022-08-05T14:30:26.535Z,32.30
2022-08-05T14:32:55.172Z,31.70
2022-08-05T14:35:37.237Z,31.20
2022-08-05T14:38:33.126Z,30.90
2022-08-05T14:40:58.547Z,30.80
2022-08-05T14:43:53.805Z,30.50
2022-08-05T14:46:12.698Z,30.80
2022-08-05T14:48:39.855Z,30.80
2022-08-05T14:51:08.478Z,30.60
2022-08-05T14:53:44.366Z,30.60
2022-08-05T14:56:13.317Z,30.40
2022-08-05T14:58:47.458Z,30.50
2022-08-05T15:01:15.969Z,30.60
2022-08-05T15:03:43.930Z,30.20
2022-08-05T15:06:15.014Z,30.00
2022-08-05T15:08:59.553Z,30.00
2022-08-05T15:11:53.017Z,29.90
2022-08-05T15:14:34.470Z,29.80
2022-08-05T15:17:04.795Z,29.60
2022-08-05T15:19:32.271Z,29.60
2022-08-05T15:22:01.492Z,29.50
2022-08-05T15:24:29.343Z,29.40
2022-08-05T15:26:57.012Z,29.30
2022-08-05T15:29:30.202Z,29.70
2022-08-05T15:32:02.415Z,29.50
2022-08-05T15:34:33.093Z,29.40
2022-08-05T15:37:06.143Z,29.20
2022-08-05T15:41:00.503Z,29.10
2022-08-05T15:42:56.547Z,29.00
2022-08-05T15:45:16.684Z,29.00
2022-08-05T15:47:45.882Z,29.00
2022-08-05T15:50:16.009Z,29.20
2022-08-05T15:52:53.370Z,29.10
2022-08-05T15:55:24.973Z,29.00
2022-08-05T15:58:09.701Z,28.80
2022-08-05T16:01:03.367Z,28.80
2022-08-05T16:03:32.813Z,28.60
2022-08-05T16:06:01.121Z,28.60
2022-08-05T16:08:30.427Z,28.50
2022-08-05T16:10:58.755Z,28.00
2022-08-05T16:13:34.434Z,27.60
2022-08-05T16:16:05.164Z,27.30
2022-08-05T16:18:33.216Z,27.20
2022-08-05T16:21:04.396Z,27.20
2022-08-05T16:23:32.894Z,27.10
2022-08-05T16:26:26.269Z,27.10
2022-08-05T16:28:54.502Z,27.10
2022-08-05T16:31:21.863Z,27.20
2022-08-05T16:33:49.766Z,27.10
2022-08-05T16:36:20.538Z,26.80
2022-08-05T16:38:55.045Z,26.70
2022-08-05T16:42:14.903Z,26.60
2022-08-05T16:44:14.069Z,26.50
2022-08-05T16:46:41.670Z,26.40
2022-08-05T16:49:23.519Z,26.50
2022-08-05T16:51:54.711Z,26.40
2022-08-05T16:54:27.491Z,26.30
2022-08-05T16:56:59.153Z,26.30
2022-08-05T16:59:27.687Z,26.20
2022-08-05T17:01:57.827Z,26.20
2022-08-05T17:04:28.051Z,26.10
2022-08-05T17:06:57.022Z,26.00
2022-08-05T17:09:29.552Z,26.00
2022-08-05T17:11:59.227Z,26.00
2022-08-05T17:14:37.362Z,26.00
2022-08-05T17:17:06.062Z,25.90
2022-08-05T17:19:33.976Z,25.90
2022-08-05T17:22:01.413Z,25.90
2022-08-05T17:24:38.538Z,25.80
2022-08-05T17:27:09.465Z,25.80
2022-08-05T17:29:41.030Z,25.70
2022-08-05T17:32:11.856Z,25.60
2022-08-05T17:34:44.630Z,25.60
2022-08-05T17:37:40.721Z,25.60
2022-08-05T17:40:01.945Z,25.60
2022-08-05T17:42:32.349Z,25.60
2022-08-05T17:45:09.932Z,25.50
2022-08-05T17:47:52.897Z,25.50
2022-08-05T17:50:28.516Z,25.40
2022-08-05T17:53:04.679Z,25.50
2022-08-05T17:55:37.257Z,25.50
2022-08-05T17:58:09.722Z,25.40
2022-08-05T18:00:40.911Z,25.30
2022-08-05T18:03:24.146Z,25.30
2022-08-05T18:06:04.650Z,25.20
2022-08-05T18:08:33.397Z,25.20
2022-08-05T18:11:01.122Z,25.10
2022-08-05T18:13:36.666Z,25.10
2022-08-05T18:16:13.693Z,25.10
2022-08-05T18:18:41.608Z,25.10
2022-08-05T18:21:20.075Z,25.10
2022-08-05T18:23:53.722Z,25.00
2022-08-05T18:26:21.968Z,25.00
2022-08-05T18:28:56.515Z,25.00
2022-08-05T18:31:33.797Z,25.40
2022-08-05T18:34:03.554Z,25.70
2022-08-05T18:36:35.480Z,25.50
2022-08-05T18:39:03.987Z,25.50
2022-08-05T18:41:56.635Z,25.80
2022-08-05T18:44:33.342Z,26.10
2022-08-05T18:47:03.958Z,26.30
2022-08-05T18:49:58.070Z,26.50
2022-08-05T18:52:33.655Z,26.70
2022-08-05T18:55:04.895Z,26.80
2022-08-05T18:57:42.973Z,27.00
2022-08-05T19:00:20.535Z,27.00
2022-08-05T19:02:48.145Z,27.20
2022-08-05T19:06:06.042Z,27.20
2022-08-05T19:08:06.435Z,27.20
2022-08-05T19:10:40.938Z,27.00
2022-08-05T19:13:12.245Z,27.00
2022-08-05T19:15:59.693Z,27.20
2022-08-05T19:18:30.446Z,27.30
2022-08-05T19:20:59.820Z,27.20
2022-08-05T19:24:07.125Z,27.00
2022-08-05T19:26:14.777Z,26.90
2022-08-05T19:28:43.698Z,26.80
2022-08-05T19:31:18.062Z,26.70
2022-08-05T19:33:56.292Z,26.60
2022-08-05T19:36:29.251Z,26.40
2022-08-05T19:39:01.128Z,26.50
2022-08-05T19:41:58.505Z,26.50
2022-08-05T19:44:19.603Z,26.40
2022-08-05T19:46:46.870Z,26.30
2022-08-05T19:49:16.997Z,26.40
2022-08-05T19:52:09.007Z,26.40
2022-08-05T19:54:34.116Z,26.50
2022-08-05T19:57:06.619Z,26.40
2022-08-05T19:59:55.836Z,26.40
2022-08-05T20:02:26.294Z,26.30
2022-08-05T20:04:55.551Z,26.20
2022-08-05T20:07:46.427Z,26.20
2022-08-05T20:10:14.657Z,26.10
2022-08-05T20:12:48.339Z,26.00
2022-08-05T20:15:23.058Z,26.00
2022-08-05T20:18:10.146Z,26.00
2022-08-05T20:20:55.030Z,25.90
2022-08-05T20:23:22.913Z,25.90
2022-08-05T20:25:52.223Z,25.80
2022-08-05T20:28:20.817Z,25.70
2022-08-05T20:30:49.649Z,25.80
2022-08-05T20:33:16.889Z,25.70
2022-08-05T20:35:45.640Z,25.60
2022-08-05T20:38:20.071Z,25.50
2022-08-05T20:40:55.526Z,25.50
2022-08-05T20:43:57.611Z,25.50
2022-08-05T20:46:18.499Z,25.50
2022-08-05T20:48:52.206Z,25.40
2022-08-05T20:51:19.336Z,25.40
2022-08-05T20:53:55.083Z,25.40
2022-08-05T20:56:28.744Z,25.40
2022-08-05T20:59:00.031Z,25.40
2022-08-05T21:01:39.069Z,25.40
2022-08-05T21:04:10.591Z,25.30
2022-08-05T21:06:45.758Z,25.20
2022-08-05T21:09:14.409Z,25.30
2022-08-05T21:12:09.991Z,25.30
2022-08-05T21:14:35.229Z,25.20
2022-08-05T21:17:06.264Z,25.20
2022-08-05T21:19:47.288Z,25.10
2022-08-05T21:22:23.200Z,24.90
2022-08-05T21:24:52.404Z,24.90
2022-08-05T21:27:25.475Z,24.90
2022-08-05T21:29:57.838Z,24.90
2022-08-05T21:32:26.626Z,24.90
2022-08-05T21:35:06.872Z,24.90
2022-08-05T21:37:47.246Z,24.80
2022-08-05T21:40:20.998Z,24.90
2022-08-05T21:42:48.382Z,24.90
2022-08-05T21:45:26.572Z,24.90
2022-08-05T21:48:08.243Z,24.90
2022-08-05T21:50:36.717Z,24.90
2022-08-05T21:53:16.183Z,24.90
2022-08-05T21:56:01.110Z,24.90
2022-08-05T21:58:31.820Z,24.80
2022-08-05T22:00:59.949Z,24.70
2022-08-05T23:03:08.709Z,22.60
2022-08-05T23:06:37.558Z,22.60
2022-08-05T23:12:45.758Z,22.60
2022-08-05T23:21:42.438Z,22.50
2022-08-05T23:31:49.442Z,22.50
2022-08-05T23:35:11.602Z,22.50
2022-08-05T23:47:16.806Z,22.40
2022-08-05T23:52:56.202Z,22.50
2022-08-05T23:55:55.064Z,22.50
